createdAt,value
2023-01-29T00:02:09.537Z,0.50
2023-01-29T00:04:36.436Z,0.50
2023-01-29T00:07:03.294Z,0.50
2023-01-29T00:09:31.357Z,0.50
2023-01-29T00:11:58.357Z,0.50
2023-01-29T00:14:27.296Z,0.40
2023-01-29T00:16:54.664Z,0.40
2023-01-29T00:19:21.823Z,0.40
2023-01-29T00:21:48.666Z,0.40
2023-01-29T00:24:15.499Z,0.50
2023-01-29T00:26:43.142Z,0.50
2023-01-29T00:29:10.111Z,0.60
2023-01-29T00:31:37.051Z,0.60
2023-01-29T00:34:03.998Z,0.60
2023-01-29T00:36:30.835Z,0.60
2023-01-29T00:39:00.472Z,0.60
2023-01-29T00:41:51.220Z,0.60
2023-01-29T00:44:38.944Z,0.60
2023-01-29T00:47:25.508Z,0.60
2023-01-29T00:49:52.483Z,0.60
2023-01-29T00:52:24.975Z,0.60
2023-01-29T00:54:53.714Z,0.60
2023-01-29T00:57:20.918Z,0.60
2023-01-29T00:59:47.898Z,0.60
2023-01-29T01:02:32.921Z,0.60
2023-01-29T01:05:02.381Z,0.60
2023-01-29T01:07:30.580Z,0.50
2023-01-29T01:10:16.471Z,0.50
2023-01-29T01:12:43.710Z,0.50
2023-01-29T01:15:10.970Z,0.50
2023-01-29T01:17:37.958Z,0.50
2023-01-29T01:20:05.680Z,0.60
2023-01-29T01:22:32.477Z,0.60
2023-01-29T01:24:59.343Z,0.60
2023-01-29T01:27:26.179Z,0.70
2023-01-29T01:29:53.273Z,0.70
2023-01-29T01:32:20.133Z,0.60
2023-01-29T01:34:46.945Z,0.60
2023-01-29T01:37:13.843Z,0.60
2023-01-29T01:39:40.736Z,0.60
2023-01-29T01:42:13.273Z,0.60
2023-01-29T01:45:04.550Z,0.60
2023-01-29T01:47:43.463Z,0.60
2023-01-29T01:50:42.742Z,0.60
2023-01-29T01:53:17.829Z,0.60
2023-01-29T01:55:52.548Z,0.50
2023-01-29T01:58:29.684Z,0.50
2023-01-29T02:00:56.950Z,0.50
2023-01-29T02:03:44.375Z,0.50
2023-01-29T02:06:30.029Z,0.50
2023-01-29T02:09:21.810Z,0.50
2023-01-29T02:11:48.635Z,0.50
2023-01-29T02:14:16.074Z,0.50
2023-01-29T02:16:42.886Z,0.60
2023-01-29T02:19:53.228Z,0.60
2023-01-29T02:23:03.629Z,0.60
2023-01-29T02:25:59.343Z,0.60
2023-01-29T02:28:44.166Z,0.60
2023-01-29T02:31:25.072Z,0.60
2023-01-29T02:33:56.755Z,0.60
2023-01-29T02:36:38.072Z,0.60
2023-01-29T02:39:37.967Z,0.70
2023-01-29T02:42:38.851Z,0.70
2023-01-29T02:45:11.454Z,0.70
2023-01-29T02:48:05.355Z,0.70
2023-01-29T02:50:43.655Z,0.70
2023-01-29T02:53:53.280Z,0.70
2023-01-29T02:56:37.380Z,0.70
2023-01-29T02:59:23.282Z,0.70
2023-01-29T03:02:10.508Z,0.70
2023-01-29T03:04:46.524Z,0.70
2023-01-29T03:07:42.434Z,0.60
2023-01-29T03:10:20.830Z,0.60
2023-01-29T03:12:55.953Z,0.50
2023-01-29T03:15:47.414Z,0.50
2023-01-29T03:18:27.746Z,0.60
2023-01-29T03:21:24.873Z,0.50
2023-01-29T03:24:12.627Z,0.50
2023-01-29T03:26:59.384Z,0.50
2023-01-29T03:29:45.224Z,0.50
2023-01-29T03:32:13.336Z,0.50
2023-01-29T03:34:53.060Z,0.50
2023-01-29T03:37:52.019Z,0.60
2023-01-29T03:40:19.211Z,0.60
2023-01-29T03:43:24.937Z,0.60
2023-01-29T03:46:03.467Z,0.60
2023-01-29T03:48:40.079Z,0.60
2023-01-29T03:51:36.452Z,0.60
2023-01-29T03:54:26.315Z,0.60
2023-01-29T03:57:05.177Z,0.60
2023-01-29T03:59:41.517Z,0.60
2023-01-29T04:02:27.772Z,0.50
2023-01-29T04:05:04.604Z,0.60
2023-01-29T04:07:33.447Z,0.60
2023-01-29T04:10:04.773Z,0.60
2023-01-29T04:12:50.248Z,0.50
2023-01-29T04:15:19.024Z,0.40
2023-01-29T04:17:56.443Z,0.40
2023-01-29T04:20:24.940Z,0.40
2023-01-29T04:22:52.766Z,0.40
2023-01-29T04:25:27.050Z,0.40
2023-01-29T04:28:19.588Z,0.40
2023-01-29T04:30:49.247Z,0.40
2023-01-29T04:33:21.834Z,0.40
2023-01-29T04:36:11.418Z,0.40
2023-01-29T04:39:05.508Z,0.30
2023-01-29T04:41:37.661Z,0.40
2023-01-29T04:44:18.993Z,0.40
2023-01-29T04:47:10.808Z,0.50
2023-01-29T04:49:51.222Z,0.50
2023-01-29T04:52:45.571Z,0.60
2023-01-29T04:55:40.591Z,0.60
2023-01-29T04:58:28.873Z,0.50
2023-01-29T05:00:57.209Z,0.50
2023-01-29T05:03:26.967Z,0.50
2023-01-29T05:05:55.863Z,0.50
2023-01-29T05:08:25.764Z,0.50
2023-01-29T05:10:55.674Z,0.50
2023-01-29T05:13:23.548Z,0.50
2023-01-29T05:15:59.792Z,0.50
2023-01-29T05:18:26.913Z,0.50
2023-01-29T05:20:56.856Z,0.50
2023-01-29T05:23:24.131Z,0.50
2023-01-29T05:25:52.626Z,0.40
2023-01-29T05:28:19.682Z,0.40
2023-01-29T05:30:52.093Z,0.40
2023-01-29T05:33:24.784Z,0.40
2023-01-29T05:35:52.025Z,0.40
2023-01-29T05:38:19.792Z,0.30
2023-01-29T05:40:47.288Z,0.30
2023-01-29T05:43:21.148Z,0.30
2023-01-29T05:46:01.416Z,0.40
2023-01-29T05:48:29.880Z,0.40
2023-01-29T05:51:05.061Z,0.40
2023-01-29T05:53:32.919Z,0.40
2023-01-29T05:56:04.674Z,0.40
2023-01-29T05:58:34.805Z,0.20
2023-01-29T06:01:21.198Z,0.30
2023-01-29T06:03:48.604Z,0.30
2023-01-29T06:06:16.403Z,0.40
2023-01-29T06:08:43.530Z,0.40
2023-01-29T06:11:13.359Z,0.40
2023-01-29T06:13:40.863Z,0.40
2023-01-29T06:16:09.133Z,0.40
2023-01-29T06:18:37.625Z,0.40
2023-01-29T06:21:07.219Z,0.40
2023-01-29T06:23:34.381Z,0.40
2023-01-29T06:26:07.806Z,0.40
2023-01-29T06:28:34.950Z,0.40
2023-01-29T06:31:23.833Z,0.50
2023-01-29T06:33:50.420Z,0.50
2023-01-29T06:36:17.260Z,0.50
2023-01-29T06:38:44.116Z,0.50
2023-01-29T06:41:13.291Z,0.50
2023-01-29T06:43:40.356Z,0.50
2023-01-29T06:46:08.756Z,0.50
2023-01-29T06:48:36.058Z,0.50
2023-01-29T06:51:06.351Z,0.50
2023-01-29T06:53:38.368Z,0.50
2023-01-29T06:56:06.572Z,0.50
2023-01-29T06:58:33.927Z,0.50
2023-01-29T07:01:11.714Z,0.50
2023-01-29T07:03:42.467Z,0.50
2023-01-29T07:06:10.316Z,0.50
2023-01-29T07:08:39.097Z,0.50
2023-01-29T07:11:07.946Z,0.50
2023-01-29T07:13:34.903Z,0.50
2023-01-29T07:16:03.802Z,0.60
2023-01-29T07:18:31.106Z,0.60
2023-01-29T07:20:58.371Z,0.50
2023-01-29T07:23:25.661Z,0.50
2023-01-29T07:25:52.564Z,0.40
2023-01-29T07:28:23.101Z,0.40
2023-01-29T07:30:49.983Z,0.40
2023-01-29T07:33:16.849Z,0.50
2023-01-29T07:35:43.725Z,0.60
2023-01-29T07:38:11.442Z,0.60
2023-01-29T07:40:38.629Z,0.60
2023-01-29T07:43:07.696Z,0.70
2023-01-29T07:45:37.259Z,0.70
2023-01-29T07:48:05.878Z,0.80
2023-01-29T07:50:35.062Z,0.90
2023-01-29T07:53:02.674Z,0.80
2023-01-29T07:55:30.544Z,0.70
2023-01-29T07:57:58.960Z,0.70
2023-01-29T08:00:25.995Z,0.70
2023-01-29T08:02:53.139Z,0.70
2023-01-29T08:05:20.204Z,0.70
2023-01-29T08:08:05.636Z,0.80
2023-01-29T08:10:35.151Z,0.80
2023-01-29T08:13:04.335Z,0.80
2023-01-29T08:15:31.151Z,0.90
2023-01-29T08:17:58.608Z,0.80
2023-01-29T08:20:25.884Z,0.70
2023-01-29T08:23:05.871Z,0.90
2023-01-29T08:25:33.250Z,0.90
2023-01-29T08:28:02.172Z,0.90
2023-01-29T08:30:32.504Z,0.90
2023-01-29T08:32:59.522Z,1.00
2023-01-29T08:35:26.617Z,1.10
2023-01-29T08:38:01.596Z,1.10
2023-01-29T08:40:32.118Z,1.10
2023-01-29T08:43:09.178Z,1.10
2023-01-29T08:45:40.214Z,1.00
2023-01-29T08:48:08.238Z,0.90
2023-01-29T08:50:36.505Z,1.00
2023-01-29T08:53:07.848Z,1.10
2023-01-29T08:55:40.114Z,1.00
2023-01-29T08:58:09.873Z,1.00
2023-01-29T09:00:37.326Z,1.10
2023-01-29T09:03:05.017Z,1.00
2023-01-29T09:05:32.567Z,1.00
2023-01-29T09:07:59.750Z,1.20
2023-01-29T09:10:26.828Z,1.20
2023-01-29T09:12:53.694Z,1.20
2023-01-29T09:15:20.497Z,1.20
2023-01-29T09:17:49.364Z,1.20
2023-01-29T09:20:17.240Z,1.20
2023-01-29T09:22:44.189Z,1.20
2023-01-29T09:25:11.088Z,1.20
2023-01-29T09:27:38.139Z,1.30
2023-01-29T09:30:07.133Z,1.40
2023-01-29T09:32:52.513Z,1.50
2023-01-29T09:35:20.889Z,1.60
2023-01-29T09:37:49.383Z,1.70
2023-01-29T09:40:51.701Z,1.70
2023-01-29T09:43:45.485Z,1.70
2023-01-29T09:46:23.865Z,1.70
2023-01-29T09:49:03.304Z,1.60
2023-01-29T09:51:42.185Z,1.50
2023-01-29T09:54:26.003Z,1.50
2023-01-29T09:56:57.492Z,1.50
2023-01-29T09:59:30.522Z,1.50
2023-01-29T10:02:09.394Z,1.50
2023-01-29T10:05:29.261Z,1.50
2023-01-29T10:08:11.004Z,1.30
2023-01-29T10:11:11.724Z,1.40
2023-01-29T10:14:09.362Z,1.40
2023-01-29T10:16:54.675Z,1.40
2023-01-29T10:19:52.524Z,1.50
2023-01-29T10:22:34.218Z,1.60
2023-01-29T10:25:05.848Z,1.60
2023-01-29T10:27:35.542Z,1.60
2023-01-29T10:30:34.519Z,1.60
2023-01-29T10:33:09.414Z,1.50
2023-01-29T10:35:43.248Z,1.50
2023-01-29T10:38:33.442Z,1.60
2023-01-29T10:41:25.764Z,1.60
2023-01-29T10:44:08.371Z,1.60
2023-01-29T10:46:47.214Z,1.60
2023-01-29T10:49:40.760Z,1.60
2023-01-29T10:52:55.103Z,1.60
2023-01-29T10:55:43.286Z,1.60
2023-01-29T10:58:51.627Z,1.30
2023-01-29T11:01:18.472Z,1.50
2023-01-29T11:03:45.391Z,1.50
2023-01-29T11:06:25.339Z,1.60
2023-01-29T11:09:26.261Z,1.70
2023-01-29T11:12:00.977Z,1.80
2023-01-29T11:14:42.959Z,1.40
2023-01-29T11:17:26.442Z,1.40
2023-01-29T11:19:55.723Z,1.60
2023-01-29T11:22:53.961Z,1.80
2023-01-29T11:25:32.421Z,2.00
2023-01-29T11:28:01.894Z,2.10
2023-01-29T11:30:30.620Z,2.20
2023-01-29T11:33:22.167Z,1.60
2023-01-29T11:35:49.515Z,1.20
2023-01-29T11:38:16.312Z,1.40
2023-01-29T11:40:43.997Z,1.80
2023-01-29T11:43:18.262Z,1.90
2023-01-29T11:45:46.068Z,1.90
2023-01-29T11:48:20.252Z,1.40
2023-01-29T11:51:05.605Z,1.70
2023-01-29T11:53:45.977Z,1.70
2023-01-29T11:56:32.605Z,1.80
2023-01-29T11:59:02.231Z,1.80
2023-01-29T12:01:41.403Z,2.00
2023-01-29T12:04:23.433Z,2.10
2023-01-29T12:06:53.125Z,2.00
2023-01-29T12:09:24.206Z,1.50
2023-01-29T12:11:52.640Z,1.60
2023-01-29T12:14:33.485Z,1.80
2023-01-29T12:17:12.818Z,1.80
2023-01-29T12:20:06.797Z,1.80
2023-01-29T12:23:02.203Z,1.80
2023-01-29T12:26:04.164Z,1.70
2023-01-29T12:29:03.568Z,1.70
2023-01-29T12:31:50.465Z,1.70
2023-01-29T12:34:45.626Z,1.90
2023-01-29T12:37:52.464Z,1.90
2023-01-29T12:40:21.167Z,2.00
2023-01-29T12:42:53.707Z,1.90
2023-01-29T12:45:25.199Z,1.70
2023-01-29T12:48:02.124Z,1.60
2023-01-29T12:50:33.745Z,1.80
2023-01-29T12:53:26.862Z,1.60
2023-01-29T12:56:37.139Z,1.10
2023-01-29T12:59:29.355Z,1.30
2023-01-29T13:02:05.151Z,1.50
2023-01-29T13:04:45.536Z,1.60
2023-01-29T13:07:30.266Z,1.60
2023-01-29T13:10:09.979Z,1.50
2023-01-29T13:12:39.938Z,1.70
2023-01-29T13:15:24.172Z,1.40
2023-01-29T13:18:01.998Z,1.60
2023-01-29T13:20:35.268Z,1.60
2023-01-29T13:23:21.294Z,1.60
2023-01-29T13:25:52.814Z,1.50
2023-01-29T13:28:25.730Z,1.40
2023-01-29T13:31:35.706Z,1.30
2023-01-29T13:34:23.727Z,1.30
2023-01-29T13:36:55.932Z,1.50
2023-01-29T13:39:44.186Z,1.50
2023-01-29T13:42:36.574Z,1.50
2023-01-29T13:45:07.489Z,1.60
2023-01-29T13:47:39.440Z,1.70
2023-01-29T13:50:19.164Z,1.60
2023-01-29T13:53:08.370Z,1.60
2023-01-29T13:55:39.995Z,1.40
2023-01-29T13:58:14.130Z,1.40
2023-01-29T14:00:40.833Z,1.30
2023-01-29T14:03:13.771Z,1.40
2023-01-29T14:05:54.992Z,1.50
2023-01-29T14:08:45.147Z,1.60
2023-01-29T14:11:21.626Z,1.50
2023-01-29T14:13:50.035Z,1.60
2023-01-29T14:16:16.895Z,1.60
2023-01-29T14:19:02.977Z,1.50
2023-01-29T14:21:36.162Z,1.50
2023-01-29T14:24:21.388Z,1.50
2023-01-29T14:26:54.635Z,1.40
2023-01-29T14:29:34.167Z,1.50
2023-01-29T14:32:20.798Z,1.50
2023-01-29T14:35:10.920Z,1.20
2023-01-29T14:37:41.599Z,1.20
2023-01-29T14:40:17.645Z,1.10
2023-01-29T14:43:08.644Z,1.10
2023-01-29T14:45:38.301Z,1.20
2023-01-29T14:48:11.124Z,1.20
2023-01-29T14:50:42.922Z,1.10
2023-01-29T14:53:41.323Z,1.20
2023-01-29T14:56:16.094Z,1.30
2023-01-29T14:58:48.346Z,1.30
2023-01-29T15:01:46.417Z,1.30
2023-01-29T15:04:44.628Z,1.20
2023-01-29T15:07:12.016Z,1.20
2023-01-29T15:09:47.138Z,1.20
2023-01-29T15:12:40.765Z,1.30
2023-01-29T15:15:34.733Z,1.20
2023-01-29T15:18:22.894Z,1.10
2023-01-29T15:20:50.108Z,1.20
2023-01-29T15:23:32.551Z,1.10
2023-01-29T15:26:04.518Z,1.10
2023-01-29T15:28:34.646Z,1.10
2023-01-29T15:31:05.999Z,1.10
2023-01-29T15:33:34.037Z,1.00
2023-01-29T15:36:08.052Z,1.00
2023-01-29T15:38:36.277Z,0.90
2023-01-29T15:41:20.072Z,0.90
2023-01-29T15:43:57.930Z,0.90
2023-01-29T15:46:38.788Z,0.90
2023-01-29T15:49:19.291Z,0.80
2023-01-29T15:51:47.888Z,0.80
2023-01-29T15:54:17.085Z,0.70
2023-01-29T15:56:50.799Z,0.80
2023-01-29T15:59:42.575Z,0.70
2023-01-29T16:02:25.852Z,0.80
2023-01-29T16:04:53.582Z,0.60
2023-01-29T16:07:21.012Z,0.70
2023-01-29T16:09:48.796Z,0.80
2023-01-29T16:12:15.781Z,0.70
2023-01-29T16:14:43.569Z,0.70
2023-01-29T16:17:38.114Z,0.60
2023-01-29T16:20:27.280Z,0.60
2023-01-29T16:22:54.189Z,0.60
2023-01-29T16:25:21.202Z,0.60
2023-01-29T16:27:48.981Z,0.60
2023-01-29T16:30:19.206Z,0.70
2023-01-29T16:32:46.431Z,0.60
2023-01-29T16:35:17.418Z,0.70
2023-01-29T16:37:50.684Z,0.60
2023-01-29T16:40:38.094Z,0.50
2023-01-29T16:43:43.666Z,0.50
2023-01-29T16:46:32.964Z,0.50
2023-01-29T16:49:00.618Z,0.40
2023-01-29T16:51:38.260Z,0.40
2023-01-29T16:54:18.305Z,0.40
2023-01-29T16:56:51.991Z,0.50
2023-01-29T16:59:32.592Z,0.50
2023-01-29T17:01:59.802Z,0.40
2023-01-29T17:04:27.793Z,0.50
2023-01-29T17:06:57.918Z,0.40
2023-01-29T17:09:33.934Z,0.50
2023-01-29T17:12:07.492Z,0.40
2023-01-29T17:14:37.940Z,0.30
2023-01-29T17:17:15.756Z,0.40
2023-01-29T17:19:42.604Z,0.30
2023-01-29T17:22:14.728Z,0.30
2023-01-29T17:24:42.559Z,0.30
2023-01-29T17:27:21.071Z,0.20
2023-01-29T17:29:51.141Z,0.20
2023-01-29T17:32:18.856Z,0.20
2023-01-29T17:34:46.919Z,0.30
2023-01-29T17:37:15.728Z,0.20
2023-01-29T17:39:50.355Z,0.20
2023-01-29T17:42:17.610Z,0.30
2023-01-29T17:44:45.278Z,0.40
2023-01-29T17:47:15.120Z,0.30
2023-01-29T17:49:42.743Z,0.30
2023-01-29T17:52:10.041Z,0.20
2023-01-29T17:54:37.037Z,0.10
2023-01-29T17:57:04.032Z,0.20
2023-01-29T17:59:34.472Z,0.20
2023-01-29T18:02:01.376Z,0.20
2023-01-29T18:04:28.276Z,0.20
2023-01-29T18:06:57.009Z,0.20
2023-01-29T18:09:24.619Z,0.30
2023-01-29T18:11:52.993Z,0.30
2023-01-29T18:14:20.275Z,0.30
2023-01-29T18:16:47.293Z,0.20
2023-01-29T18:19:14.170Z,0.20
2023-01-29T18:21:41.272Z,0.20
2023-01-29T18:24:08.309Z,0.30
2023-01-29T18:26:35.971Z,0.30
2023-01-29T18:29:03.875Z,0.30
2023-01-29T18:31:31.116Z,0.20
2023-01-29T18:33:58.056Z,0.20
2023-01-29T18:36:24.999Z,0.20
2023-01-29T18:38:51.882Z,0.00
2023-01-29T18:41:18.760Z,0.10
2023-01-29T18:43:52.774Z,0.10
2023-01-29T18:46:20.193Z,0.10
2023-01-29T18:48:47.066Z,0.10
2023-01-29T18:51:13.970Z,0.10
2023-01-29T18:53:40.838Z,0.10
2023-01-29T18:56:08.147Z,0.00
2023-01-29T18:58:36.366Z,0.10
2023-01-29T19:01:11.790Z,0.20
2023-01-29T19:03:40.578Z,0.00
2023-01-29T19:06:10.443Z,0.10
2023-01-29T19:08:37.821Z,0.20
2023-01-29T19:11:08.010Z,0.20
2023-01-29T19:13:37.116Z,0.20
2023-01-29T19:16:09.023Z,0.30
2023-01-29T19:18:36.267Z,0.20
2023-01-29T19:21:10.382Z,0.20
2023-01-29T19:23:37.849Z,-0.10
2023-01-29T19:26:05.146Z,0.00
2023-01-29T19:28:32.609Z,0.10
2023-01-29T19:31:00.657Z,0.00
2023-01-29T19:33:28.765Z,0.00
2023-01-29T19:35:59.854Z,-0.10
2023-01-29T19:38:27.605Z,-0.10
2023-01-29T19:40:55.262Z,0.00
2023-01-29T19:43:22.152Z,0.00
2023-01-29T19:45:51.036Z,0.10
2023-01-29T19:48:21.752Z,0.00
2023-01-29T19:50:58.169Z,0.00
2023-01-29T19:53:25.352Z,-0.10
2023-01-29T19:56:08.866Z,0.00
2023-01-29T19:58:36.351Z,0.10
2023-01-29T20:01:20.662Z,0.10
2023-01-29T20:03:49.858Z,0.20
2023-01-29T20:06:19.973Z,0.10
2023-01-29T20:08:46.939Z,0.00
2023-01-29T20:11:20.674Z,-0.10
2023-01-29T20:13:50.479Z,-0.20
2023-01-29T20:16:19.297Z,-0.20
2023-01-29T20:18:46.647Z,-0.20
2023-01-29T20:21:16.655Z,-0.10
2023-01-29T20:23:45.888Z,-0.10
2023-01-29T20:26:16.061Z,-0.20
2023-01-29T20:28:43.234Z,-0.20
2023-01-29T20:31:10.291Z,-0.20
2023-01-29T20:33:39.534Z,-0.20
2023-01-29T20:36:09.883Z,-0.20
2023-01-29T20:38:38.357Z,-0.20
2023-01-29T20:41:14.652Z,-0.20
2023-01-29T20:43:42.540Z,-0.10
2023-01-29T20:46:10.271Z,-0.20
2023-01-29T20:48:37.651Z,-0.20
2023-01-29T20:51:07.795Z,-0.20
2023-01-29T20:53:34.790Z,-0.30
2023-01-29T20:56:04.216Z,-0.30
2023-01-29T20:58:31.602Z,-0.20
2023-01-29T21:00:58.422Z,-0.20
2023-01-29T21:03:25.297Z,-0.10
2023-01-29T21:05:52.330Z,-0.20
2023-01-29T21:08:19.186Z,-0.20
2023-01-29T21:10:49.242Z,-0.20
2023-01-29T21:13:16.086Z,-0.10
2023-01-29T21:15:42.990Z,-0.10
2023-01-29T21:18:10.343Z,-0.10
2023-01-29T21:20:37.583Z,-0.10
2023-01-29T21:23:06.910Z,-0.10
2023-01-29T21:25:34.119Z,0.00
2023-01-29T21:28:02.818Z,0.00
2023-01-29T21:30:30.016Z,0.00
2023-01-29T21:32:56.870Z,0.00
2023-01-29T21:35:23.745Z,0.00
2023-01-29T21:37:50.687Z,0.10
2023-01-29T21:40:18.180Z,0.00
2023-01-29T21:43:03.763Z,0.10
2023-01-29T21:45:30.581Z,0.10
2023-01-29T21:47:58.409Z,-0.10
2023-01-29T21:50:25.246Z,0.00
2023-01-29T21:52:52.129Z,0.00
2023-01-29T21:55:19.004Z,-0.10
2023-01-29T21:57:46.929Z,-0.10
2023-01-29T22:00:14.804Z,-0.20
2023-01-29T22:02:42.051Z,-0.20
2023-01-29T22:05:18.730Z,-0.20
2023-01-29T22:07:47.802Z,-0.30
2023-01-29T22:10:17.104Z,-0.30
2023-01-29T22:12:44.767Z,-0.30
2023-01-29T22:15:12.848Z,-0.50
2023-01-29T22:17:41.407Z,-0.50
2023-01-29T22:20:11.762Z,-0.50
2023-01-29T22:22:38.667Z,-0.70
2023-01-29T22:25:05.969Z,-0.70
2023-01-29T22:27:33.985Z,-0.70
2023-01-29T22:30:00.877Z,-0.70
2023-01-29T22:32:28.047Z,-0.90
2023-01-29T22:34:54.923Z,-0.80
2023-01-29T22:37:21.789Z,-0.80
2023-01-29T22:39:48.653Z,-0.90
2023-01-29T22:42:15.465Z,-0.80
2023-01-29T22:44:42.692Z,-0.80
2023-01-29T22:47:09.621Z,-0.90
2023-01-29T22:49:36.441Z,-0.90
2023-01-29T22:52:12.566Z,-1.00
2023-01-29T22:54:42.093Z,-1.10
2023-01-29T22:57:11.973Z,-1.10
2023-01-29T22:59:38.994Z,-1.20
2023-01-29T23:02:07.896Z,-1.20
2023-01-29T23:04:35.108Z,-1.40
2023-01-29T23:07:02.014Z,-1.40
2023-01-29T23:09:29.021Z,-1.40
2023-01-29T23:11:55.867Z,-1.60
2023-01-29T23:14:22.718Z,-1.60
2023-01-29T23:16:49.521Z,-1.70
2023-01-29T23:19:16.413Z,-1.70
2023-01-29T23:21:43.466Z,-1.60
2023-01-29T23:24:10.933Z,-1.70
2023-01-29T23:26:56.164Z,-1.70
2023-01-29T23:29:23.117Z,-1.70
2023-01-29T23:31:50.040Z,-1.70
2023-01-29T23:34:17.203Z,-1.70
2023-01-29T23:36:44.082Z,-1.80
2023-01-29T23:39:11.263Z,-1.90
2023-01-29T23:41:38.183Z,-2.00
2023-01-29T23:44:05.336Z,-2.00
2023-01-29T23:46:32.901Z,-2.00
2023-01-29T23:48:59.988Z,-2.00
2023-01-29T23:51:27.004Z,-2.10
2023-01-29T23:53:54.089Z,-2.20
2023-01-29T23:56:20.935Z,-2.10
2023-01-29T23:58:47.780Z,-2.30
